createdAt,value
2022-12-09T00:00:41.765Z,21.85
2022-12-09T00:02:13.665Z,24.00
2022-12-09T00:03:45.609Z,21.27
2022-12-09T00:05:17.635Z,21.63
2022-12-09T00:06:49.450Z,21.30
2022-12-09T00:08:21.327Z,22.02
2022-12-09T00:09:53.069Z,24.50
2022-12-09T00:11:25.230Z,24.10
2022-12-09T00:12:57.183Z,22.98
2022-12-09T00:14:30.450Z,22.30
2022-12-09T00:16:05.935Z,22.60
2022-12-09T00:17:37.701Z,23.58
2022-12-09T00:19:09.447Z,23.80
2022-12-09T00:20:41.083Z,23.30
2022-12-09T00:22:12.807Z,23.90
2022-12-09T00:23:44.562Z,23.55
2022-12-09T00:25:16.199Z,24.95
2022-12-09T00:26:47.856Z,24.90
2022-12-09T00:28:19.510Z,23.75
2022-12-09T00:29:52.667Z,25.98
2022-12-09T00:31:25.412Z,25.23
2022-12-09T00:32:57.260Z,26.40
2022-12-09T00:34:28.951Z,27.40
2022-12-09T00:36:04.821Z,27.67
2022-12-09T00:37:36.448Z,27.25
2022-12-09T00:39:08.174Z,25.80
2022-12-09T00:40:40.019Z,28.45
2022-12-09T00:42:11.839Z,28.55
2022-12-09T00:43:43.775Z,28.42
2022-12-09T00:45:16.952Z,27.17
2022-12-09T00:46:48.883Z,29.05
2022-12-09T00:48:20.839Z,29.00
2022-12-09T00:49:52.446Z,30.90
2022-12-09T00:51:24.731Z,27.17
2022-12-09T00:52:56.429Z,29.40
2022-12-09T00:54:28.242Z,27.23
2022-12-09T00:55:59.898Z,30.83
2022-12-09T00:57:31.665Z,30.20
2022-12-09T00:59:03.315Z,28.17
2022-12-09T01:00:36.350Z,29.13
2022-12-09T01:02:08.300Z,28.48
2022-12-09T01:03:40.154Z,29.48
2022-12-09T01:05:12.065Z,27.77
2022-12-09T01:06:43.805Z,30.80
2022-12-09T01:08:15.723Z,29.48
2022-12-09T01:09:47.433Z,31.15
2022-12-09T01:11:21.021Z,30.58
2022-12-09T01:12:52.928Z,28.92
2022-12-09T01:14:24.850Z,29.70
2022-12-09T01:15:58.197Z,31.40
2022-12-09T01:17:30.380Z,32.25
2022-12-09T01:19:03.108Z,29.45
2022-12-09T01:20:34.852Z,33.25
2022-12-09T01:22:06.504Z,31.65
2022-12-09T01:23:38.271Z,30.98
2022-12-09T01:25:10.061Z,33.13
2022-12-09T01:26:41.753Z,32.60
2022-12-09T01:28:13.683Z,31.27
2022-12-09T01:29:45.524Z,29.73
2022-12-09T01:31:19.460Z,34.15
2022-12-09T01:32:51.215Z,34.15
2022-12-09T01:34:23.291Z,33.22
2022-12-09T01:35:54.903Z,33.88
2022-12-09T01:37:26.597Z,37.47
2022-12-09T01:38:58.982Z,32.88
2022-12-09T01:40:30.644Z,34.45
2022-12-09T01:42:02.564Z,44.05
2022-12-09T01:43:34.500Z,34.22
2022-12-09T01:45:40.310Z,34.63
2022-12-09T01:47:21.260Z,34.63
2022-12-09T01:48:52.985Z,37.95
2022-12-09T01:50:24.848Z,34.92
2022-12-09T01:52:00.959Z,36.22
2022-12-09T01:53:35.493Z,37.22
2022-12-09T01:55:08.030Z,41.33
2022-12-09T01:56:39.737Z,43.33
2022-12-09T01:58:11.402Z,35.28
2022-12-09T01:59:43.107Z,35.13
2022-12-09T02:01:15.030Z,33.17
2022-12-09T02:02:48.862Z,33.85
2022-12-09T02:04:20.687Z,44.65
2022-12-09T02:05:52.789Z,34.97
2022-12-09T02:07:24.567Z,35.10
2022-12-09T02:08:56.302Z,37.53
2022-12-09T02:10:28.109Z,42.95
2022-12-09T02:12:05.924Z,38.45
2022-12-09T02:13:41.023Z,37.72
2022-12-09T02:15:14.669Z,44.40
2022-12-09T02:16:50.596Z,39.88
2022-12-09T02:18:25.746Z,39.03
2022-12-09T02:20:01.676Z,39.90
2022-12-09T02:21:35.435Z,45.00
2022-12-09T02:23:08.794Z,33.47
2022-12-09T02:24:41.511Z,38.88
2022-12-09T02:26:27.406Z,35.55
2022-12-09T02:28:24.710Z,32.10
2022-12-09T02:30:04.077Z,32.45
2022-12-09T02:31:50.181Z,36.53
2022-12-09T02:33:26.589Z,34.13
2022-12-09T02:35:00.885Z,34.83
2022-12-09T02:36:35.731Z,35.40
2022-12-09T02:38:09.424Z,34.03
2022-12-09T02:39:43.251Z,36.95
2022-12-09T02:41:16.600Z,35.75
2022-12-09T02:42:48.279Z,36.75
2022-12-09T02:44:20.603Z,39.45
2022-12-09T02:45:52.327Z,37.58
2022-12-09T02:47:25.397Z,37.60
2022-12-09T02:48:57.905Z,40.20
2022-12-09T02:50:32.715Z,36.58
2022-12-09T02:52:04.464Z,36.50
2022-12-09T02:53:36.460Z,35.65
2022-12-09T02:55:09.513Z,41.85
2022-12-09T02:56:42.900Z,40.67
2022-12-09T02:58:14.618Z,35.65
2022-12-09T02:59:46.860Z,38.75
2022-12-09T03:01:22.404Z,41.13
2022-12-09T03:02:55.466Z,34.70
2022-12-09T03:04:27.948Z,37.55
2022-12-09T03:06:03.518Z,38.95
2022-12-09T03:07:39.091Z,36.25
2022-12-09T03:09:12.201Z,35.53
2022-12-09T03:10:47.760Z,35.45
2022-12-09T03:12:20.028Z,37.97
2022-12-09T03:13:53.340Z,38.72
2022-12-09T03:15:25.843Z,37.95
2022-12-09T03:17:01.156Z,36.65
2022-12-09T03:18:33.473Z,39.40
2022-12-09T03:20:06.879Z,45.78
2022-12-09T03:21:42.143Z,41.78
2022-12-09T03:23:15.606Z,35.95
2022-12-09T03:24:52.129Z,42.47
2022-12-09T03:26:24.959Z,40.38
2022-12-09T03:27:57.833Z,42.72
2022-12-09T03:29:29.789Z,37.20
2022-12-09T03:31:03.219Z,39.60
2022-12-09T03:32:35.634Z,38.45
2022-12-09T03:34:07.674Z,38.63
2022-12-09T03:35:41.412Z,41.50
2022-12-09T03:37:15.087Z,39.88
2022-12-09T03:38:47.010Z,44.55
2022-12-09T03:40:22.577Z,43.53
2022-12-09T03:41:56.282Z,44.60
2022-12-09T03:43:29.847Z,46.10
2022-12-09T03:45:02.977Z,43.08
2022-12-09T03:46:35.251Z,43.30
2022-12-09T03:48:07.487Z,40.72
2022-12-09T03:49:39.649Z,37.10
2022-12-09T03:51:14.348Z,40.97
2022-12-09T03:52:49.515Z,39.05
2022-12-09T03:54:23.038Z,41.20
2022-12-09T03:55:58.312Z,40.35
2022-12-09T03:57:30.339Z,40.53
2022-12-09T03:59:02.224Z,38.38
2022-12-09T04:00:35.434Z,41.40
2022-12-09T04:02:07.759Z,44.42
2022-12-09T04:03:39.766Z,40.55
2022-12-09T04:05:12.303Z,48.30
2022-12-09T04:06:44.269Z,44.15
2022-12-09T04:08:17.489Z,40.88
2022-12-09T04:09:49.368Z,58.15
2022-12-09T04:11:21.499Z,48.22
2022-12-09T04:12:53.332Z,49.65
2022-12-09T04:14:25.003Z,40.47
2022-12-09T04:15:56.821Z,44.15
2022-12-09T04:17:28.885Z,44.08
2022-12-09T04:19:00.686Z,41.22
2022-12-09T04:20:32.745Z,39.45
2022-12-09T04:22:04.778Z,45.08
2022-12-09T04:23:42.504Z,44.70
2022-12-09T04:25:15.101Z,41.53
2022-12-09T04:26:46.827Z,41.38
2022-12-09T04:28:18.880Z,42.42
2022-12-09T04:29:50.702Z,42.00
2022-12-09T04:31:22.872Z,39.58
2022-12-09T04:32:54.994Z,41.40
2022-12-09T04:34:27.029Z,41.65
2022-12-09T04:36:04.386Z,37.92
2022-12-09T04:37:37.511Z,39.80
2022-12-09T04:39:10.681Z,39.20
2022-12-09T04:40:42.350Z,42.15
2022-12-09T04:42:14.067Z,39.42
2022-12-09T04:43:45.793Z,37.92
2022-12-09T04:45:17.817Z,34.65
2022-12-09T04:46:49.925Z,41.13
2022-12-09T04:48:21.837Z,39.25
2022-12-09T04:49:53.543Z,38.33
2022-12-09T04:51:25.301Z,40.85
2022-12-09T04:52:57.268Z,40.15
2022-12-09T04:54:30.390Z,42.20
2022-12-09T04:56:02.480Z,39.80
2022-12-09T04:57:34.161Z,39.45
2022-12-09T04:59:06.272Z,52.67
2022-12-09T05:00:38.293Z,43.28
2022-12-09T05:02:10.088Z,44.55
2022-12-09T05:03:42.258Z,40.55
2022-12-09T05:05:14.917Z,36.92
2022-12-09T05:06:47.201Z,39.00
2022-12-09T05:08:19.542Z,37.35
2022-12-09T05:09:53.091Z,38.65
2022-12-09T05:11:25.203Z,39.00
2022-12-09T05:12:57.284Z,37.80
2022-12-09T05:14:29.161Z,37.13
2022-12-09T05:16:01.347Z,39.55
2022-12-09T05:17:33.244Z,37.35
2022-12-09T05:19:05.532Z,39.83
2022-12-09T05:20:41.397Z,42.42
2022-12-09T05:22:16.033Z,43.72
2022-12-09T05:23:47.941Z,42.50
2022-12-09T05:25:21.545Z,41.47
2022-12-09T05:26:53.240Z,41.50
2022-12-09T05:28:25.717Z,45.53
2022-12-09T05:29:57.687Z,40.85
2022-12-09T05:31:29.780Z,39.05
2022-12-09T05:33:02.013Z,45.60
2022-12-09T05:34:33.907Z,53.83
2022-12-09T05:36:10.472Z,44.88
2022-12-09T05:37:42.342Z,48.67
2022-12-09T05:39:14.607Z,46.33
2022-12-09T05:40:47.887Z,45.95
2022-12-09T05:42:19.556Z,40.17
2022-12-09T05:43:51.814Z,42.35
2022-12-09T05:45:23.969Z,49.55
2022-12-09T05:46:55.766Z,43.00
2022-12-09T05:48:27.919Z,49.45
2022-12-09T05:50:04.485Z,43.05
2022-12-09T05:51:39.719Z,40.92
2022-12-09T05:53:11.695Z,48.72
2022-12-09T05:54:43.793Z,50.08
2022-12-09T05:56:17.282Z,40.85
2022-12-09T05:57:49.306Z,41.92
2022-12-09T05:59:21.102Z,52.53
2022-12-09T06:00:56.581Z,44.40
2022-12-09T06:02:28.717Z,55.50
2022-12-09T06:04:00.800Z,45.25
2022-12-09T06:05:33.454Z,49.75
2022-12-09T06:07:05.429Z,47.78
2022-12-09T06:08:37.847Z,46.17
2022-12-09T06:10:10.678Z,46.00
2022-12-09T06:11:44.474Z,42.85
2022-12-09T06:13:16.455Z,36.50
2022-12-09T06:14:50.463Z,48.53
2022-12-09T06:16:22.566Z,43.05
2022-12-09T06:17:54.418Z,43.45
2022-12-09T06:19:26.784Z,44.25
2022-12-09T06:20:59.035Z,42.22
2022-12-09T06:22:33.339Z,38.30
2022-12-09T06:24:05.582Z,45.58
2022-12-09T06:25:37.590Z,45.78
2022-12-09T06:27:11.085Z,46.30
2022-12-09T06:28:42.898Z,48.85
2022-12-09T06:30:14.986Z,51.38
2022-12-09T06:31:46.888Z,52.50
2022-12-09T06:33:52.485Z,51.63
2022-12-09T06:35:11.630Z,51.38
2022-12-09T06:36:44.127Z,42.03
2022-12-09T06:38:15.840Z,41.75
2022-12-09T06:39:48.033Z,42.92
2022-12-09T06:41:19.975Z,41.88
2022-12-09T06:42:53.719Z,38.17
2022-12-09T06:44:25.737Z,37.15
2022-12-09T06:45:57.778Z,36.80
2022-12-09T06:47:29.748Z,40.03
2022-12-09T06:49:01.788Z,42.85
2022-12-09T06:50:33.693Z,38.30
2022-12-09T06:52:05.702Z,44.58
2022-12-09T06:53:37.459Z,39.28
2022-12-09T06:55:11.030Z,43.35
2022-12-09T06:56:43.121Z,39.83
2022-12-09T06:58:16.263Z,38.28
2022-12-09T06:59:48.173Z,43.28
2022-12-09T07:01:20.897Z,36.67
2022-12-09T07:02:53.500Z,40.00
2022-12-09T07:04:25.870Z,37.97
2022-12-09T07:05:57.983Z,42.08
2022-12-09T07:07:30.485Z,39.90
2022-12-09T07:09:03.955Z,43.65
2022-12-09T07:10:36.151Z,39.67
2022-12-09T07:12:08.002Z,44.80
2022-12-09T07:13:41.207Z,38.95
2022-12-09T07:15:13.844Z,40.85
2022-12-09T07:16:46.145Z,47.97
2022-12-09T07:18:18.297Z,39.33
2022-12-09T07:19:50.572Z,37.85
2022-12-09T07:21:23.356Z,49.10
2022-12-09T07:22:56.174Z,45.17
2022-12-09T07:24:27.977Z,43.83
2022-12-09T07:26:02.348Z,57.05
2022-12-09T07:27:34.430Z,51.45
2022-12-09T07:29:08.003Z,38.28
2022-12-09T07:30:40.257Z,35.72
2022-12-09T07:32:12.378Z,39.80
2022-12-09T07:33:44.563Z,36.47
2022-12-09T07:35:16.940Z,38.65
2022-12-09T07:36:48.871Z,39.67
2022-12-09T07:38:20.808Z,38.30
2022-12-09T07:39:52.656Z,43.40
2022-12-09T07:41:24.581Z,40.35
2022-12-09T07:42:59.778Z,40.78
2022-12-09T07:44:33.299Z,40.65
2022-12-09T07:46:06.072Z,49.60
2022-12-09T07:47:38.405Z,42.08
2022-12-09T07:49:10.974Z,38.25
2022-12-09T07:50:43.420Z,38.67
2022-12-09T07:52:15.208Z,57.78
2022-12-09T07:53:47.263Z,47.00
2022-12-09T07:55:19.709Z,46.28
2022-12-09T07:56:51.373Z,41.05
2022-12-09T07:58:23.357Z,44.00
2022-12-09T07:59:56.893Z,44.55
2022-12-09T08:01:29.517Z,39.47
2022-12-09T08:03:01.674Z,37.33
2022-12-09T08:04:35.298Z,36.03
2022-12-09T08:06:07.605Z,36.75
2022-12-09T08:07:44.269Z,43.97
2022-12-09T08:09:16.825Z,38.28
2022-12-09T08:10:49.552Z,36.90
2022-12-09T08:12:21.933Z,35.45
2022-12-09T08:13:53.944Z,39.72
2022-12-09T08:15:27.311Z,36.88
2022-12-09T08:16:59.463Z,36.70
2022-12-09T08:18:31.850Z,43.80
2022-12-09T08:20:05.253Z,38.88
2022-12-09T08:21:37.694Z,58.95
2022-12-09T08:23:09.743Z,41.15
2022-12-09T08:24:41.807Z,54.40
2022-12-09T08:26:14.535Z,63.45
2022-12-09T08:27:46.523Z,55.80
2022-12-09T08:29:19.241Z,47.95
2022-12-09T08:30:53.031Z,41.80
2022-12-09T08:32:25.049Z,39.45
2022-12-09T08:33:57.810Z,58.58
2022-12-09T08:35:29.995Z,49.83
2022-12-09T08:37:02.431Z,46.40
2022-12-09T08:38:35.154Z,42.72
2022-12-09T08:40:08.294Z,39.78
2022-12-09T08:41:41.147Z,43.13
2022-12-09T08:43:13.352Z,36.05
2022-12-09T08:44:45.342Z,35.47
2022-12-09T08:46:18.805Z,38.38
2022-12-09T08:47:50.872Z,34.30
2022-12-09T08:49:25.868Z,39.50
2022-12-09T08:51:17.859Z,38.92
2022-12-09T08:52:49.847Z,42.22
2022-12-09T08:54:21.579Z,42.95
2022-12-09T08:55:53.474Z,39.10
2022-12-09T08:57:25.654Z,48.22
2022-12-09T08:58:57.410Z,41.72
2022-12-09T09:00:29.095Z,44.53
2022-12-09T09:02:02.258Z,35.15
2022-12-09T09:03:34.601Z,37.05
2022-12-09T09:05:07.380Z,37.95
2022-12-09T09:06:40.553Z,35.05
2022-12-09T09:08:12.603Z,53.72
2022-12-09T09:09:47.132Z,37.40
2022-12-09T09:11:21.602Z,35.55
2022-12-09T09:12:53.480Z,56.92
2022-12-09T09:14:25.220Z,38.03
2022-12-09T09:15:57.097Z,34.60
2022-12-09T09:17:30.668Z,34.92
2022-12-09T09:19:06.006Z,37.85
2022-12-09T09:20:38.935Z,35.45
2022-12-09T09:22:10.698Z,37.72
2022-12-09T09:23:45.402Z,33.42
2022-12-09T09:25:17.698Z,33.95
2022-12-09T09:26:50.162Z,39.20
2022-12-09T09:28:27.348Z,32.08
2022-12-09T09:30:00.917Z,40.55
2022-12-09T09:31:32.732Z,35.88
2022-12-09T09:33:05.963Z,32.85
2022-12-09T09:34:37.838Z,32.60
2022-12-09T09:36:12.916Z,32.40
2022-12-09T09:37:44.755Z,39.88
2022-12-09T09:39:16.773Z,39.97
2022-12-09T09:40:48.712Z,36.83
2022-12-09T09:42:23.497Z,31.00
2022-12-09T09:43:55.379Z,31.90
2022-12-09T09:45:27.483Z,41.53
2022-12-09T09:46:59.672Z,35.83
2022-12-09T09:48:34.249Z,42.47
2022-12-09T09:50:09.480Z,36.05
2022-12-09T09:51:42.020Z,35.95
2022-12-09T09:53:17.557Z,38.55
2022-12-09T09:54:49.410Z,40.70
2022-12-09T09:56:26.881Z,38.00
2022-12-09T09:58:02.192Z,34.80
2022-12-09T09:59:41.991Z,32.53
2022-12-09T10:01:20.376Z,30.70
2022-12-09T10:03:10.394Z,39.97
2022-12-09T10:04:54.039Z,31.42
2022-12-09T10:06:33.298Z,34.55
2022-12-09T10:08:23.949Z,33.95
2022-12-09T10:09:59.945Z,34.53
2022-12-09T10:11:39.933Z,35.40
2022-12-09T10:13:19.852Z,37.03
2022-12-09T10:14:54.423Z,32.75
2022-12-09T10:16:32.109Z,30.80
2022-12-09T10:18:09.113Z,35.72
2022-12-09T10:19:50.365Z,32.38
2022-12-09T10:21:22.583Z,33.08
2022-12-09T10:22:56.717Z,35.95
2022-12-09T10:24:38.720Z,29.42
2022-12-09T10:26:18.662Z,33.50
2022-12-09T10:27:53.969Z,32.85
2022-12-09T10:29:42.132Z,32.15
2022-12-09T10:31:14.304Z,32.63
2022-12-09T10:32:46.590Z,34.88
2022-12-09T10:34:22.006Z,36.25
2022-12-09T10:35:55.610Z,32.40
2022-12-09T10:37:32.288Z,32.28
2022-12-09T10:39:04.694Z,39.75
2022-12-09T10:40:41.559Z,43.50
2022-12-09T10:42:35.041Z,35.50
2022-12-09T10:44:18.198Z,39.92
2022-12-09T10:47:53.233Z,38.40
2022-12-09T10:49:28.032Z,49.20
2022-12-09T10:51:04.108Z,35.97
2022-12-09T10:52:41.823Z,34.35
2022-12-09T10:54:20.927Z,46.63
2022-12-09T10:55:54.782Z,46.53
2022-12-09T10:57:30.518Z,33.20
2022-12-09T10:59:18.007Z,34.22
2022-12-09T11:01:07.277Z,38.22
2022-12-09T11:02:39.948Z,36.65
2022-12-09T11:04:12.622Z,36.97
2022-12-09T11:05:45.036Z,31.27
2022-12-09T11:07:26.121Z,34.08
2022-12-09T11:08:59.163Z,32.97
2022-12-09T11:10:48.272Z,37.45
2022-12-09T11:12:36.645Z,33.53
2022-12-09T11:14:24.919Z,31.08
2022-12-09T11:16:04.094Z,37.42
2022-12-09T11:17:37.632Z,48.88
2022-12-09T11:19:13.576Z,34.15
2022-12-09T11:20:55.153Z,47.20
2022-12-09T11:22:31.786Z,38.05
2022-12-09T11:24:04.862Z,40.20
2022-12-09T11:25:37.643Z,45.10
2022-12-09T11:27:24.430Z,41.00
2022-12-09T11:29:01.060Z,44.25
2022-12-09T11:30:36.468Z,38.88
2022-12-09T11:32:14.643Z,38.83
2022-12-09T11:33:49.073Z,38.03
2022-12-09T11:35:24.085Z,40.65
2022-12-09T11:36:57.717Z,62.95
2022-12-09T11:38:36.939Z,42.28
2022-12-09T11:40:14.900Z,34.80
2022-12-09T11:42:06.204Z,36.88
2022-12-09T11:43:41.491Z,37.45
2022-12-09T11:45:18.343Z,43.10
2022-12-09T11:46:55.411Z,39.13
2022-12-09T11:48:35.064Z,36.15
2022-12-09T11:50:15.488Z,34.30
2022-12-09T11:52:02.109Z,48.95
2022-12-09T11:53:39.343Z,40.03
2022-12-09T11:55:14.846Z,42.20
2022-12-09T11:56:46.560Z,34.08
2022-12-09T11:58:20.297Z,33.03
2022-12-09T11:59:53.512Z,44.47
2022-12-09T12:01:27.811Z,39.67
2022-12-09T12:03:01.231Z,37.28
2022-12-09T12:04:34.421Z,40.20
2022-12-09T12:06:08.040Z,34.40
2022-12-09T12:07:41.927Z,41.03
2022-12-09T12:09:17.981Z,36.00
2022-12-09T12:10:51.754Z,39.88
2022-12-09T12:12:25.311Z,40.80
2022-12-09T12:14:01.402Z,35.80
2022-12-09T12:15:39.449Z,36.45
2022-12-09T12:17:16.984Z,35.50
2022-12-09T12:18:49.976Z,47.67
2022-12-09T12:20:22.663Z,32.75
2022-12-09T12:22:16.130Z,33.20
2022-12-09T12:23:59.313Z,38.85
2022-12-09T12:25:39.164Z,32.60
2022-12-09T12:27:19.465Z,34.13
2022-12-09T12:29:08.927Z,33.20
2022-12-09T12:30:43.429Z,31.48
2022-12-09T12:32:41.232Z,39.30
2022-12-09T12:34:24.496Z,32.72
2022-12-09T12:35:59.313Z,39.53
2022-12-09T12:37:39.424Z,32.17
2022-12-09T12:39:14.125Z,38.13
2022-12-09T12:40:51.444Z,46.53
2022-12-09T12:42:30.737Z,34.53
2022-12-09T12:44:26.593Z,34.92
2022-12-09T12:46:19.101Z,34.20
2022-12-09T12:47:55.361Z,33.33
2022-12-09T12:49:46.536Z,37.20
2022-12-09T12:51:22.908Z,45.10
2022-12-09T12:52:57.811Z,32.47
2022-12-09T12:54:35.953Z,36.72
2022-12-09T12:56:10.902Z,41.20
2022-12-09T12:57:44.821Z,45.97
2022-12-09T12:59:19.946Z,36.65
2022-12-09T13:00:56.431Z,35.42
2022-12-09T13:02:35.830Z,33.80
2022-12-09T13:04:15.239Z,28.63
2022-12-09T13:05:47.835Z,34.85
2022-12-09T13:07:32.153Z,38.22
2022-12-09T13:09:05.604Z,41.50
2022-12-09T13:10:39.747Z,46.15
2022-12-09T13:12:14.932Z,47.30
2022-12-09T13:13:48.583Z,40.03
2022-12-09T13:15:21.643Z,36.75
2022-12-09T13:16:53.367Z,42.47
2022-12-09T13:18:29.275Z,53.85
2022-12-09T13:20:01.351Z,47.60
2022-12-09T13:21:32.992Z,39.85
2022-12-09T13:23:07.021Z,32.85
2022-12-09T13:24:42.169Z,36.78
2022-12-09T13:26:23.405Z,33.85
2022-12-09T13:27:59.695Z,43.33
2022-12-09T13:29:36.854Z,34.17
2022-12-09T13:31:09.615Z,36.33
2022-12-09T13:33:03.159Z,30.95
2022-12-09T13:34:37.409Z,38.25
2022-12-09T13:36:13.596Z,35.70
2022-12-09T13:38:00.683Z,37.13
2022-12-09T13:39:54.401Z,39.85
2022-12-09T13:42:03.860Z,46.10
2022-12-09T13:43:36.915Z,33.42
2022-12-09T13:45:14.129Z,39.28
2022-12-09T13:46:46.023Z,36.33
2022-12-09T13:48:40.522Z,46.58
2022-12-09T13:50:23.842Z,34.65
2022-12-09T13:51:55.512Z,65.03
2022-12-09T13:53:29.281Z,37.72
2022-12-09T13:55:01.075Z,36.58
2022-12-09T13:56:33.476Z,33.95
2022-12-09T13:58:18.293Z,38.13
2022-12-09T13:59:51.557Z,34.22
2022-12-09T14:01:23.684Z,35.42
2022-12-09T14:02:57.685Z,53.67
2022-12-09T14:04:30.180Z,42.15
2022-12-09T14:06:04.416Z,44.85
2022-12-09T14:07:38.118Z,38.53
2022-12-09T14:09:22.142Z,34.15
2022-12-09T14:10:54.213Z,41.22
2022-12-09T14:13:02.698Z,36.40
2022-12-09T14:14:45.695Z,34.03
2022-12-09T14:16:33.811Z,41.00
2022-12-09T14:18:25.241Z,40.80
2022-12-09T14:20:01.668Z,44.83
2022-12-09T14:21:33.591Z,31.58
2022-12-09T14:23:15.480Z,36.58
2022-12-09T14:24:49.434Z,36.25
2022-12-09T14:26:33.504Z,35.78
2022-12-09T14:28:25.063Z,34.97
2022-12-09T14:29:57.525Z,36.33
2022-12-09T14:31:50.391Z,44.78
2022-12-09T14:33:22.192Z,33.92
2022-12-09T14:35:15.177Z,34.92
2022-12-09T14:36:54.253Z,45.90
2022-12-09T14:38:28.575Z,37.13
2022-12-09T14:40:16.559Z,36.08
2022-12-09T14:41:50.989Z,48.10
2022-12-09T14:43:50.201Z,34.58
2022-12-09T14:45:28.247Z,42.15
2022-12-09T14:47:13.829Z,40.53
2022-12-09T14:48:47.507Z,39.20
2022-12-09T14:50:20.766Z,34.72
2022-12-09T14:51:52.894Z,40.75
2022-12-09T14:53:24.575Z,36.58
2022-12-09T14:54:56.515Z,38.97
2022-12-09T14:56:28.625Z,32.15
2022-12-09T14:58:00.719Z,37.38
2022-12-09T14:59:32.585Z,37.65
2022-12-09T15:01:05.091Z,34.22
2022-12-09T15:02:38.249Z,40.75
2022-12-09T15:04:10.811Z,36.92
2022-12-09T15:05:53.657Z,42.85
2022-12-09T15:07:26.166Z,85.38
2022-12-09T15:08:58.306Z,57.28
2022-12-09T15:10:32.470Z,54.30
2022-12-09T15:12:08.343Z,46.33
2022-12-09T15:13:41.629Z,61.28
2022-12-09T15:15:15.851Z,83.30
2022-12-09T15:16:50.544Z,107.20
2022-12-09T15:18:24.588Z,169.98
2022-12-09T15:20:00.769Z,114.72
2022-12-09T15:21:32.903Z,100.47
2022-12-09T15:23:06.865Z,71.68
2022-12-09T15:24:49.700Z,62.85
2022-12-09T15:26:24.656Z,48.20
2022-12-09T15:27:57.884Z,64.88
2022-12-09T15:29:30.450Z,45.08
2022-12-09T15:31:03.175Z,41.28
2022-12-09T15:32:38.872Z,56.55
2022-12-09T15:34:15.838Z,59.60
2022-12-09T15:35:50.582Z,55.33
2022-12-09T15:37:24.720Z,56.17
2022-12-09T15:38:58.087Z,48.72
2022-12-09T15:40:30.179Z,55.45
2022-12-09T15:42:12.746Z,43.20
2022-12-09T15:43:44.360Z,38.20
2022-12-09T15:45:17.053Z,46.38
2022-12-09T15:46:49.542Z,92.43
2022-12-09T15:48:21.767Z,46.75
2022-12-09T15:49:57.551Z,43.13
2022-12-09T15:51:29.182Z,35.85
2022-12-09T15:53:02.850Z,73.50
2022-12-09T15:54:35.622Z,42.00
2022-12-09T15:56:09.011Z,46.55
2022-12-09T15:57:40.653Z,34.78
2022-12-09T15:59:27.919Z,39.13
2022-12-09T16:00:59.511Z,31.75
2022-12-09T16:02:32.386Z,34.60
2022-12-09T16:04:04.856Z,34.10
2022-12-09T16:05:42.091Z,39.55
2022-12-09T16:07:15.874Z,35.22
2022-12-09T16:08:47.533Z,38.15
2022-12-09T16:10:19.300Z,39.85
2022-12-09T16:11:52.174Z,51.30
2022-12-09T16:13:23.882Z,44.30
2022-12-09T16:14:55.504Z,34.90
2022-12-09T16:16:33.084Z,32.10
2022-12-09T16:18:04.973Z,38.80
2022-12-09T16:19:38.159Z,44.47
2022-12-09T16:21:25.127Z,39.97
2022-12-09T16:22:56.763Z,39.17
2022-12-09T16:24:50.864Z,38.88
2022-12-09T16:26:24.167Z,35.88
2022-12-09T16:27:57.818Z,37.05
2022-12-09T16:29:31.104Z,31.50
2022-12-09T16:31:04.523Z,31.73
2022-12-09T16:32:39.944Z,34.55
2022-12-09T16:34:19.799Z,33.67
2022-12-09T16:35:56.992Z,32.97
2022-12-09T16:37:36.124Z,40.58
2022-12-09T16:39:33.417Z,34.08
2022-12-09T16:41:09.389Z,34.63
2022-12-09T16:42:41.247Z,42.50
2022-12-09T16:44:18.180Z,36.55
2022-12-09T16:45:50.196Z,38.55
2022-12-09T16:47:24.963Z,35.28
2022-12-09T16:49:04.409Z,45.33
2022-12-09T16:50:37.239Z,36.33
2022-12-09T16:52:11.665Z,56.70
2022-12-09T16:53:45.943Z,35.55
2022-12-09T16:55:19.356Z,36.13
2022-12-09T16:56:51.954Z,43.92
2022-12-09T16:58:23.635Z,34.45
2022-12-09T16:59:55.299Z,34.30
2022-12-09T17:01:29.563Z,36.38
2022-12-09T17:03:02.053Z,30.50
2022-12-09T17:04:33.703Z,29.45
2022-12-09T17:06:05.663Z,31.15
2022-12-09T17:07:37.367Z,76.97
2022-12-09T17:09:14.661Z,35.40
2022-12-09T17:10:46.281Z,39.45
2022-12-09T17:12:18.053Z,44.08
2022-12-09T17:13:52.594Z,33.47
2022-12-09T17:15:24.354Z,32.40
2022-12-09T17:16:56.082Z,35.65
2022-12-09T17:18:28.451Z,34.80
2022-12-09T17:20:00.119Z,31.92
2022-12-09T17:21:32.064Z,30.30
2022-12-09T17:23:03.722Z,32.67
2022-12-09T17:24:36.795Z,31.85
2022-12-09T17:26:09.369Z,30.05
2022-12-09T17:27:41.220Z,28.60
2022-12-09T17:29:12.834Z,29.55
2022-12-09T17:30:44.466Z,28.58
2022-12-09T17:32:16.135Z,32.60
2022-12-09T17:33:50.783Z,33.80
2022-12-09T17:35:22.423Z,27.63
2022-12-09T17:36:55.185Z,29.88
2022-12-09T17:38:28.280Z,27.88
2022-12-09T17:40:03.634Z,30.05
2022-12-09T17:41:35.682Z,28.00
2022-12-09T17:43:07.440Z,37.17
2022-12-09T17:44:39.357Z,27.85
2022-12-09T17:46:11.553Z,29.60
2022-12-09T17:47:43.237Z,29.30
2022-12-09T17:49:16.121Z,30.20
2022-12-09T17:50:47.807Z,31.42
2022-12-09T17:52:20.561Z,32.45
2022-12-09T17:53:52.167Z,33.88
2022-12-09T17:55:27.029Z,51.20
2022-12-09T17:56:58.687Z,30.35
2022-12-09T17:58:32.908Z,31.63
2022-12-09T18:00:06.965Z,30.58
2022-12-09T18:01:40.489Z,28.73
2022-12-09T18:03:17.891Z,37.83
2022-12-09T18:04:53.960Z,32.55
2022-12-09T18:06:25.683Z,28.65
2022-12-09T18:07:57.361Z,30.20
2022-12-09T18:09:54.160Z,33.33
2022-12-09T18:11:27.592Z,30.33
2022-12-09T18:12:59.364Z,27.15
2022-12-09T18:14:31.246Z,28.77
2022-12-09T18:16:08.034Z,26.50
2022-12-09T18:17:39.700Z,34.20
2022-12-09T18:19:15.382Z,30.73
2022-12-09T18:20:47.784Z,26.20
2022-12-09T18:22:19.423Z,28.75
2022-12-09T18:23:51.105Z,32.05
2022-12-09T18:25:22.733Z,28.55
2022-12-09T18:26:55.927Z,26.73
2022-12-09T18:28:27.715Z,26.90
2022-12-09T18:29:59.547Z,28.67
2022-12-09T18:31:31.329Z,25.70
2022-12-09T18:33:03.075Z,28.63
2022-12-09T18:34:35.672Z,29.92
2022-12-09T18:36:07.918Z,36.83
2022-12-09T18:37:39.560Z,30.63
2022-12-09T18:39:11.241Z,29.95
2022-12-09T18:41:00.972Z,37.05
2022-12-09T18:42:34.077Z,32.03
2022-12-09T18:44:22.992Z,26.17
2022-12-09T18:45:54.932Z,32.92
2022-12-09T18:47:26.662Z,28.13
2022-12-09T18:48:58.798Z,25.33
2022-12-09T18:50:30.593Z,29.15
2022-12-09T18:52:03.659Z,28.80
2022-12-09T18:53:35.526Z,34.70
2022-12-09T18:55:07.650Z,23.05
2022-12-09T18:56:39.528Z,28.83
2022-12-09T18:58:13.119Z,27.13
2022-12-09T18:59:46.010Z,41.10
2022-12-09T19:01:19.628Z,29.95
2022-12-09T19:02:51.523Z,25.50
2022-12-09T19:04:25.970Z,40.85
2022-12-09T19:05:57.938Z,24.98
2022-12-09T19:07:32.414Z,25.02
2022-12-09T19:09:06.000Z,32.78
2022-12-09T19:10:37.881Z,24.73
2022-12-09T19:12:45.195Z,23.33
2022-12-09T19:14:03.719Z,23.23
2022-12-09T19:15:35.504Z,25.15
2022-12-09T19:17:07.249Z,23.63
2022-12-09T19:18:38.933Z,27.02
2022-12-09T19:20:11.158Z,32.67
2022-12-09T19:21:42.925Z,23.63
2022-12-09T19:23:16.971Z,25.88
2022-12-09T19:24:48.764Z,27.00
2022-12-09T19:26:21.563Z,30.40
2022-12-09T19:27:53.252Z,28.23
2022-12-09T19:29:27.904Z,25.25
2022-12-09T19:31:02.561Z,24.77
2022-12-09T19:32:52.921Z,24.75
2022-12-09T19:34:25.967Z,26.05
2022-12-09T19:35:57.592Z,25.83
2022-12-09T19:37:29.255Z,26.23
2022-12-09T19:39:01.359Z,24.98
2022-12-09T19:40:32.981Z,36.28
2022-12-09T19:42:07.836Z,27.77
2022-12-09T19:43:39.460Z,25.00
2022-12-09T19:45:14.360Z,31.02
2022-12-09T19:46:46.484Z,24.00
2022-12-09T19:48:18.439Z,24.83
2022-12-09T19:49:50.285Z,25.70
2022-12-09T19:51:22.171Z,28.80
2022-12-09T19:52:53.864Z,33.80
2022-12-09T19:54:31.431Z,37.65
2022-12-09T19:56:03.899Z,25.10
2022-12-09T19:57:35.605Z,25.23
2022-12-09T19:59:07.682Z,33.03
2022-12-09T20:00:41.768Z,26.23
2022-12-09T20:02:15.540Z,26.23
2022-12-09T20:03:49.294Z,26.25
2022-12-09T20:05:24.682Z,26.63
2022-12-09T20:07:07.701Z,28.48
2022-12-09T20:08:46.778Z,26.13
2022-12-09T20:10:20.066Z,25.98
2022-12-09T20:11:55.700Z,27.75
2022-12-09T20:13:33.456Z,32.05
2022-12-09T20:15:07.421Z,26.30
2022-12-09T20:16:41.791Z,36.28
2022-12-09T20:18:15.246Z,28.73
2022-12-09T20:19:48.513Z,23.90
2022-12-09T20:21:23.811Z,25.65